Gozo/Qala, Malta
Current Conditions -  °F | °C
As of 4:15 AM on Sunday 21 Dec 2014 (Local Time) from LMML Reporting Station
Broken Clouds Broken Clouds  
Wind Chill: 61°   Ceiling: 4400
Heat Index: 61°   Visibility: 6mi
Dew Point: 52°   Wind: 14mph
Humidity: 72%   Direction: 320°NW
Pressure: 30.21"   Gusts: NA
Location:  36.05°N, 14.27°E
Report Text: LMML 210215Z AUTO 32012KT 9999NDV BKN044/// 16/11 Q1023
Loading
Personal Weather Stations






























Interactive Weather Map New forecast layout! Learn more

10-Day Weather Forecast

Advertisements
Track Severe Weather on mobile